createdAt,value
2018-07-28T00:00:58.907Z,23.16
2018-07-28T00:01:58.916Z,23.21
2018-07-28T00:02:58.856Z,23.16
2018-07-28T00:03:58.852Z,23.21
2018-07-28T00:04:58.835Z,23.09
2018-07-28T00:05:58.853Z,23.14
2018-07-28T00:06:58.853Z,23.07
2018-07-28T00:07:58.840Z,23.22
2018-07-28T00:08:58.792Z,23.07
2018-07-28T00:09:58.824Z,23.14
2018-07-28T00:10:58.784Z,23.12
2018-07-28T00:11:58.799Z,23.15
2018-07-28T00:12:58.759Z,23.23
2018-07-28T00:13:58.759Z,23.19
2018-07-28T00:14:58.728Z,23.25
2018-07-28T00:15:58.721Z,23.21
2018-07-28T00:16:58.758Z,23.26
2018-07-28T00:17:58.710Z,23.26
2018-07-28T00:18:58.685Z,23.29
2018-07-28T00:19:58.677Z,23.31
2018-07-28T00:20:58.665Z,23.23
2018-07-28T00:21:58.678Z,23.22
2018-07-28T00:22:58.642Z,23.25
2018-07-28T00:23:58.683Z,23.18
2018-07-28T00:24:58.631Z,23.19
2018-07-28T00:25:58.611Z,23.16
2018-07-28T00:26:58.628Z,23.19
2018-07-28T00:27:58.590Z,23.07
2018-07-28T00:28:58.579Z,23.06
2018-07-28T00:29:58.590Z,23.06
2018-07-28T00:30:58.557Z,23.12
2018-07-28T00:31:58.570Z,23.09
2018-07-28T00:32:58.539Z,23.12
2018-07-28T00:33:58.548Z,23.00
2018-07-28T00:34:58.516Z,23.16
2018-07-28T00:35:58.508Z,23.04
2018-07-28T00:36:58.602Z,23.12
2018-07-28T00:37:58.485Z,23.07
2018-07-28T00:38:58.476Z,23.14
2018-07-28T00:39:58.512Z,23.04
2018-07-28T00:40:58.478Z,23.04
2018-07-28T00:41:58.574Z,23.07
2018-07-28T00:42:58.431Z,23.04
2018-07-28T00:43:58.480Z,23.07
2018-07-28T00:44:58.410Z,23.04
2018-07-28T00:45:58.397Z,23.11
2018-07-28T00:46:58.449Z,23.07
2018-07-28T00:47:58.394Z,23.00
2018-07-28T00:48:58.366Z,23.01
2018-07-28T00:49:58.370Z,23.06
2018-07-28T00:50:58.345Z,23.00
2018-07-28T00:51:58.361Z,22.99
2018-07-28T00:52:58.351Z,23.04
2018-07-28T00:53:58.313Z,22.94
2018-07-28T00:54:58.312Z,22.99
2018-07-28T00:55:58.298Z,22.88
2018-07-28T00:56:58.358Z,22.84
2018-07-28T00:57:58.271Z,22.91
2018-07-28T00:58:58.308Z,22.94
2018-07-28T00:59:58.251Z,22.91
2018-07-28T01:00:58.237Z,23.00
2018-07-28T01:01:58.257Z,22.88
2018-07-28T01:02:58.217Z,22.91
2018-07-28T01:03:58.249Z,22.85
2018-07-28T01:04:58.195Z,22.96
2018-07-28T01:05:58.193Z,22.89
2018-07-28T01:06:58.225Z,22.91
2018-07-28T01:07:58.169Z,22.86
2018-07-28T01:08:58.162Z,22.91
2018-07-28T01:09:58.167Z,22.88
2018-07-28T01:10:58.133Z,22.82
2018-07-28T01:11:58.146Z,22.88
2018-07-28T01:12:58.231Z,22.74
2018-07-28T01:13:58.103Z,22.72
2018-07-28T01:14:58.101Z,22.72
2018-07-28T01:15:58.086Z,22.74
2018-07-28T01:16:58.099Z,22.70
2018-07-28T01:17:58.093Z,22.69
2018-07-28T01:18:58.074Z,22.69
2018-07-28T01:19:58.045Z,22.63
2018-07-28T01:20:58.069Z,22.60
2018-07-28T01:21:58.060Z,22.63
2018-07-28T01:22:58.004Z,22.61
2018-07-28T01:23:58.001Z,22.54
2018-07-28T01:24:58.001Z,22.57
2018-07-28T01:25:57.975Z,22.59
2018-07-28T01:26:57.986Z,22.54
2018-07-28T01:27:57.951Z,22.56
2018-07-28T01:28:57.940Z,22.51
2018-07-28T01:29:57.997Z,22.57
2018-07-28T01:30:57.920Z,22.59
2018-07-28T01:31:57.909Z,22.52
2018-07-28T01:32:57.939Z,22.54
2018-07-28T01:33:57.889Z,22.52
2018-07-28T01:34:57.877Z,22.52
2018-07-28T01:35:57.872Z,22.57
2018-07-28T01:36:57.859Z,22.56
2018-07-28T01:37:57.870Z,22.56
2018-07-28T01:38:57.836Z,22.52
2018-07-28T01:39:57.828Z,22.54
2018-07-28T01:40:57.814Z,22.52
2018-07-28T01:41:57.824Z,22.57
2018-07-28T01:42:57.835Z,22.52
2018-07-28T01:43:57.785Z,22.46
2018-07-28T01:44:57.780Z,22.52
2018-07-28T01:45:57.761Z,22.46
2018-07-28T01:46:57.779Z,22.48
2018-07-28T01:47:57.776Z,22.56
2018-07-28T01:48:57.732Z,22.56
2018-07-28T01:49:57.723Z,22.59
2018-07-28T01:50:57.709Z,22.48
2018-07-28T01:51:57.744Z,22.46
2018-07-28T01:52:57.705Z,22.44
2018-07-28T01:53:57.694Z,22.45
2018-07-28T01:54:57.666Z,22.42
2018-07-28T01:55:57.654Z,22.45
2018-07-28T01:56:57.669Z,22.46
2018-07-28T01:57:57.636Z,22.42
2018-07-28T01:58:57.623Z,22.35
2018-07-28T01:59:57.637Z,22.35
2018-07-28T02:00:57.630Z,22.35
2018-07-28T02:01:57.619Z,22.29
2018-07-28T02:02:57.580Z,22.27
2018-07-28T02:03:57.577Z,22.19
2018-07-28T02:04:57.619Z,22.19
2018-07-28T02:05:57.568Z,22.15
2018-07-28T02:06:57.563Z,22.09
2018-07-28T02:07:57.527Z,22.02
2018-07-28T02:08:57.539Z,22.05
2018-07-28T02:09:57.507Z,22.06
2018-07-28T02:10:57.497Z,22.01
2018-07-28T02:11:57.509Z,21.99
2018-07-28T02:12:57.495Z,21.98
2018-07-28T02:13:57.467Z,21.98
2018-07-28T02:14:57.485Z,21.85
2018-07-28T02:15:57.463Z,21.85
2018-07-28T02:16:57.460Z,21.85
2018-07-28T02:17:57.424Z,21.75
2018-07-28T02:18:57.411Z,21.77
2018-07-28T02:19:57.399Z,21.70
2018-07-28T02:20:57.399Z,21.64
2018-07-28T02:21:57.406Z,21.56
2018-07-28T02:22:57.416Z,21.49
2018-07-28T02:23:57.394Z,21.56
2018-07-28T02:24:57.357Z,21.48
2018-07-28T02:25:57.336Z,21.49
2018-07-28T02:26:57.379Z,21.46
2018-07-28T02:27:57.322Z,21.34
2018-07-28T02:28:57.352Z,21.33
2018-07-28T02:29:57.302Z,21.34
2018-07-28T02:30:57.289Z,21.33
2018-07-28T02:31:57.299Z,21.34
2018-07-28T02:32:57.268Z,21.37
2018-07-28T02:33:57.259Z,21.38
2018-07-28T02:34:57.299Z,21.28
2018-07-28T02:35:57.235Z,21.33
2018-07-28T02:36:57.247Z,21.24
2018-07-28T02:37:57.218Z,21.28
2018-07-28T02:38:57.232Z,21.28
2018-07-28T02:39:57.189Z,21.28
2018-07-28T02:40:57.179Z,21.28
2018-07-28T02:41:57.218Z,21.31
2018-07-28T02:42:57.157Z,21.45
2018-07-28T02:43:57.146Z,21.38
2018-07-28T02:44:57.137Z,21.33
2018-07-28T02:45:57.124Z,21.33
2018-07-28T02:46:57.142Z,21.33
2018-07-28T02:47:57.123Z,21.33
2018-07-28T02:48:57.124Z,21.31
2018-07-28T02:49:57.104Z,21.31
2018-07-28T02:50:57.073Z,21.34
2018-07-28T02:51:57.116Z,21.27
2018-07-28T02:52:57.052Z,21.31
2018-07-28T02:53:57.042Z,21.24
2018-07-28T02:54:57.068Z,21.24
2018-07-28T02:55:57.026Z,21.27
2018-07-28T02:56:57.034Z,21.31
2018-07-28T02:57:57.002Z,21.26
2018-07-28T02:58:56.986Z,21.18
2018-07-28T02:59:56.984Z,21.26
2018-07-28T03:00:57.000Z,21.16
2018-07-28T03:01:57.026Z,21.24
2018-07-28T03:02:56.947Z,21.21
2018-07-28T03:03:56.947Z,21.16
2018-07-28T03:04:56.980Z,21.18
2018-07-28T03:05:56.918Z,21.15
2018-07-28T03:06:56.928Z,21.11
2018-07-28T03:07:56.916Z,21.16
2018-07-28T03:08:56.882Z,21.13
2018-07-28T03:09:56.875Z,21.09
2018-07-28T03:10:56.861Z,21.06
2018-07-28T03:11:56.879Z,21.15
2018-07-28T03:12:56.873Z,21.12
2018-07-28T03:13:56.828Z,21.15
2018-07-28T03:14:56.819Z,21.12
2018-07-28T03:15:56.807Z,21.09
2018-07-28T03:16:56.825Z,21.09
2018-07-28T03:17:56.788Z,21.06
2018-07-28T03:18:56.796Z,21.06
2018-07-28T03:19:56.764Z,21.11
2018-07-28T03:20:56.752Z,21.12
2018-07-28T03:21:56.786Z,21.03
2018-07-28T03:22:56.731Z,21.09
2018-07-28T03:23:56.723Z,21.09
2018-07-28T03:24:56.792Z,21.11
2018-07-28T03:25:56.702Z,21.03
2018-07-28T03:26:56.713Z,21.06
2018-07-28T03:27:56.681Z,21.11
2018-07-28T03:28:56.685Z,20.96
2018-07-28T03:29:56.663Z,20.96
2018-07-28T03:30:56.673Z,21.03
2018-07-28T03:31:56.673Z,20.94
2018-07-28T03:32:56.625Z,20.85
2018-07-28T03:33:56.617Z,20.82
2018-07-28T03:34:56.624Z,20.79
2018-07-28T03:35:56.594Z,20.76
2018-07-28T03:36:56.638Z,20.76
2018-07-28T03:37:56.574Z,20.87
2018-07-28T03:38:56.564Z,20.78
2018-07-28T03:39:56.556Z,20.69
2018-07-28T03:40:56.538Z,20.69
2018-07-28T03:41:56.557Z,20.78
2018-07-28T03:42:56.527Z,20.79
2018-07-28T03:43:56.536Z,20.63
2018-07-28T03:44:56.498Z,20.76
2018-07-28T03:45:56.486Z,20.71
2018-07-28T03:46:56.501Z,20.76
2018-07-28T03:47:56.470Z,20.66
2018-07-28T03:48:56.454Z,20.75
2018-07-28T03:49:56.448Z,20.73
2018-07-28T03:50:56.459Z,20.73
2018-07-28T03:51:56.484Z,20.66
2018-07-28T03:52:56.411Z,20.69
2018-07-28T03:53:56.431Z,20.69
2018-07-28T03:54:56.402Z,20.60
2018-07-28T03:55:56.378Z,20.61
2018-07-28T03:56:56.397Z,20.61
2018-07-28T03:57:56.380Z,20.51
2018-07-28T03:58:56.419Z,20.48
2018-07-28T03:59:56.358Z,20.54
2018-07-28T04:00:56.341Z,20.50
2018-07-28T04:01:56.352Z,20.42
2018-07-28T04:02:56.312Z,20.40
2018-07-28T04:03:56.324Z,20.41
2018-07-28T04:04:56.338Z,20.41
2018-07-28T04:05:56.271Z,20.41
2018-07-28T04:06:56.306Z,20.41
2018-07-28T04:07:56.273Z,20.41
2018-07-28T04:08:56.238Z,20.40
2018-07-28T04:09:56.227Z,20.38
2018-07-28T04:10:56.256Z,20.42
2018-07-28T04:11:56.251Z,20.31
2018-07-28T04:12:56.198Z,20.37
2018-07-28T04:13:56.201Z,20.25
2018-07-28T04:14:56.177Z,20.30
2018-07-28T04:15:56.164Z,20.23
2018-07-28T04:16:56.203Z,20.34
2018-07-28T04:17:56.143Z,20.22
2018-07-28T04:18:56.256Z,20.26
2018-07-28T04:19:56.120Z,20.26
2018-07-28T04:20:56.115Z,20.27
2018-07-28T04:21:56.142Z,20.27
2018-07-28T04:22:56.120Z,20.26
2018-07-28T04:23:56.076Z,20.26
2018-07-28T04:24:56.066Z,20.33
2018-07-28T04:25:56.056Z,20.23
2018-07-28T04:26:56.073Z,20.30
2018-07-28T04:27:56.037Z,20.38
2018-07-28T04:28:56.055Z,20.33
2018-07-28T04:29:56.015Z,20.35
2018-07-28T04:30:56.023Z,20.42
2018-07-28T04:31:56.025Z,20.53
2018-07-28T04:32:55.982Z,20.58
2018-07-28T04:33:55.975Z,20.57
2018-07-28T04:34:55.974Z,20.64
2018-07-28T04:35:55.950Z,20.68
2018-07-28T04:36:55.974Z,20.64
2018-07-28T04:37:55.932Z,20.85
2018-07-28T04:38:55.916Z,20.83
2018-07-28T04:39:55.906Z,20.93
2018-07-28T04:40:55.911Z,20.97
2018-07-28T04:41:55.912Z,21.06
2018-07-28T04:42:55.873Z,21.19
2018-07-28T04:43:55.916Z,21.19
2018-07-28T04:44:55.853Z,21.30
2018-07-28T04:45:55.841Z,21.38
2018-07-28T04:46:55.885Z,21.43
2018-07-28T04:47:55.821Z,21.51
2018-07-28T04:48:55.815Z,21.64
2018-07-28T04:49:55.805Z,21.68
2018-07-28T04:50:55.795Z,21.79
2018-07-28T04:51:55.807Z,21.89
2018-07-28T04:52:55.777Z,21.98
2018-07-28T04:53:55.803Z,22.01
2018-07-28T04:54:55.789Z,22.14
2018-07-28T04:55:55.738Z,22.14
2018-07-28T04:56:55.757Z,22.23
2018-07-28T04:57:55.733Z,22.30
2018-07-28T04:58:55.729Z,22.38
2018-07-28T04:59:55.701Z,22.48
2018-07-28T05:00:55.707Z,22.49
2018-07-28T05:01:55.698Z,22.42
2018-07-28T05:02:55.661Z,22.59
2018-07-28T05:03:55.653Z,22.54
2018-07-28T05:04:55.681Z,22.61
2018-07-28T05:05:55.652Z,22.70
2018-07-28T05:06:55.650Z,22.75
2018-07-28T05:07:55.627Z,22.76
2018-07-28T05:08:55.598Z,22.75
2018-07-28T05:09:55.587Z,22.84
2018-07-28T05:10:55.592Z,22.86
2018-07-28T05:11:55.591Z,22.85
2018-07-28T05:12:55.554Z,22.85
2018-07-28T05:13:55.544Z,22.85
2018-07-28T05:14:55.537Z,22.84
2018-07-28T05:15:55.599Z,22.86
2018-07-28T05:16:55.536Z,22.85
2018-07-28T05:17:55.501Z,22.88
2018-07-28T05:18:55.490Z,22.96
2018-07-28T05:19:55.482Z,23.01
2018-07-28T05:20:55.526Z,22.94
2018-07-28T05:21:55.505Z,23.01
2018-07-28T05:22:55.449Z,23.00
2018-07-28T05:23:55.437Z,22.93
2018-07-28T05:24:55.426Z,22.94
2018-07-28T05:25:55.415Z,22.88
2018-07-28T05:26:55.444Z,22.89
2018-07-28T05:27:55.421Z,22.86
2018-07-28T05:28:55.383Z,22.84
2018-07-28T05:29:55.386Z,22.85
2018-07-28T05:30:55.364Z,22.88
2018-07-28T05:31:55.374Z,22.96
2018-07-28T05:32:55.342Z,22.93
2018-07-28T05:33:55.357Z,22.86
2018-07-28T05:34:55.321Z,22.85
2018-07-28T05:35:55.310Z,22.86
2018-07-28T05:36:55.338Z,22.89
2018-07-28T05:37:55.289Z,22.84
2018-07-28T05:38:55.283Z,22.91
2018-07-28T05:39:55.320Z,22.86
2018-07-28T05:40:55.259Z,22.81
2018-07-28T05:41:55.270Z,22.86
2018-07-28T05:42:55.240Z,22.74
2018-07-28T05:43:55.224Z,22.78
2018-07-28T05:44:55.213Z,22.72
2018-07-28T05:45:55.239Z,22.70
2018-07-28T05:46:55.223Z,22.61
2018-07-28T05:47:55.186Z,22.56
2018-07-28T05:48:55.184Z,22.51
2018-07-28T05:49:55.171Z,22.52
2018-07-28T05:50:55.149Z,22.48
2018-07-28T05:51:55.234Z,22.46
2018-07-28T05:52:55.140Z,22.49
2018-07-28T05:53:55.119Z,22.38
2018-07-28T05:54:55.111Z,22.44
2018-07-28T05:55:55.097Z,22.31
2018-07-28T05:56:55.109Z,22.33
2018-07-28T05:57:55.129Z,22.38
2018-07-28T05:58:55.064Z,22.41
2018-07-28T05:59:55.064Z,22.42
2018-07-28T06:00:55.045Z,22.46
2018-07-28T06:01:55.068Z,22.44
2018-07-28T06:02:55.039Z,22.49
2018-07-28T06:03:55.046Z,22.56
2018-07-28T06:04:55.053Z,22.54
2018-07-28T06:05:54.989Z,22.51
2018-07-28T06:06:55.008Z,22.63
2018-07-28T06:07:54.972Z,22.70
2018-07-28T06:08:54.958Z,22.70
2018-07-28T06:09:54.962Z,22.86
2018-07-28T06:10:54.940Z,22.85
2018-07-28T06:11:54.958Z,22.93
2018-07-28T06:12:54.951Z,22.97
2018-07-28T06:13:54.916Z,23.07
2018-07-28T06:14:54.900Z,23.19
2018-07-28T06:15:54.914Z,23.32
2018-07-28T06:16:54.902Z,23.42
2018-07-28T06:17:54.862Z,23.50
2018-07-28T06:18:54.867Z,23.52
2018-07-28T06:19:54.840Z,23.67
2018-07-28T06:20:54.841Z,23.63
2018-07-28T06:21:55.042Z,23.72
2018-07-28T06:22:54.820Z,23.79
2018-07-28T06:23:54.798Z,23.69
2018-07-28T06:24:54.786Z,23.60
2018-07-28T06:25:54.817Z,23.69
2018-07-28T06:26:54.803Z,23.68
2018-07-28T06:27:54.755Z,23.64
2018-07-28T06:28:54.762Z,23.60
2018-07-28T06:29:54.766Z,23.53
2018-07-28T06:30:54.721Z,23.53
2018-07-28T06:31:54.784Z,23.52
2018-07-28T06:32:54.699Z,23.52
2018-07-28T06:33:54.692Z,23.53
2018-07-28T06:34:54.696Z,23.54
2018-07-28T06:35:54.686Z,23.57
2018-07-28T06:36:54.687Z,23.52
2018-07-28T06:37:54.645Z,23.62
2018-07-28T06:38:54.639Z,23.75
2018-07-28T06:39:54.626Z,23.82
2018-07-28T06:40:54.628Z,23.96
2018-07-28T06:41:54.715Z,24.16
2018-07-28T06:42:54.610Z,24.19
2018-07-28T06:43:54.586Z,24.45
2018-07-28T06:44:54.576Z,24.44
2018-07-28T06:45:54.569Z,24.63
2018-07-28T06:46:54.577Z,24.80
2018-07-28T06:47:54.576Z,24.82
2018-07-28T06:48:54.543Z,24.87
2018-07-28T06:49:54.519Z,24.97
2018-07-28T06:50:54.512Z,25.14
2018-07-28T06:51:54.572Z,25.27
2018-07-28T06:52:54.497Z,25.30
2018-07-28T06:53:54.482Z,25.38
2018-07-28T06:54:54.492Z,25.29
2018-07-28T06:55:54.455Z,25.38
2018-07-28T06:56:54.485Z,25.42
2018-07-28T06:57:54.476Z,25.39
2018-07-28T06:58:54.456Z,25.24
2018-07-28T06:59:54.430Z,25.36
2018-07-28T07:00:54.405Z,25.24
2018-07-28T07:01:54.443Z,25.22
2018-07-28T07:02:54.395Z,25.38
2018-07-28T07:03:54.449Z,25.35
2018-07-28T07:04:54.376Z,25.44
2018-07-28T07:05:54.351Z,25.42
2018-07-28T07:06:54.415Z,25.44
2018-07-28T07:07:54.344Z,25.41
2018-07-28T07:08:54.362Z,25.42
2018-07-28T07:09:54.448Z,25.51
2018-07-28T07:10:54.302Z,25.49
2018-07-28T07:11:54.336Z,25.56
2018-07-28T07:12:54.461Z,25.57
2018-07-28T07:13:54.269Z,25.63
2018-07-28T07:14:54.257Z,25.78
2018-07-28T07:15:54.283Z,25.74
2018-07-28T07:16:54.260Z,25.89
2018-07-28T07:17:54.222Z,25.89
2018-07-28T07:18:54.217Z,26.00
2018-07-28T07:19:54.218Z,26.24
2018-07-28T07:20:54.246Z,26.32
2018-07-28T07:21:54.327Z,26.47
2018-07-28T07:22:54.180Z,26.50
2018-07-28T07:23:54.351Z,26.65
2018-07-28T07:24:54.151Z,26.71
2018-07-28T07:25:54.185Z,26.98
2018-07-28T07:26:54.161Z,27.27
2018-07-28T07:27:54.132Z,27.20
2018-07-28T07:28:54.156Z,26.96
2018-07-28T07:29:54.143Z,26.86
2018-07-28T07:30:54.097Z,26.88
2018-07-28T07:31:54.221Z,26.90
2018-07-28T07:32:54.132Z,26.88
2018-07-28T07:33:54.101Z,26.75
2018-07-28T07:34:54.285Z,26.76
2018-07-28T07:35:54.119Z,26.73
2018-07-28T07:36:54.042Z,26.65
2018-07-28T07:37:54.111Z,26.64
2018-07-28T07:38:54.008Z,26.56
2018-07-28T07:39:53.996Z,26.36
2018-07-28T07:40:53.997Z,26.31
2018-07-28T07:41:53.976Z,26.23
2018-07-28T07:42:54.192Z,26.03
2018-07-28T07:43:53.961Z,25.96
2018-07-28T07:44:53.972Z,25.93
2018-07-28T07:45:53.996Z,25.94
2018-07-28T07:46:53.929Z,25.89
2018-07-28T07:47:53.939Z,25.83
2018-07-28T07:48:53.906Z,25.78
2018-07-28T07:49:53.897Z,25.72
2018-07-28T07:50:53.912Z,25.66
2018-07-28T07:51:53.869Z,25.66
2018-07-28T07:52:54.002Z,25.66
2018-07-28T07:53:53.860Z,25.54
2018-07-28T07:54:53.866Z,25.46
2018-07-28T07:55:53.833Z,25.36
2018-07-28T07:56:53.823Z,25.26
2018-07-28T07:57:53.880Z,25.12
2018-07-28T07:58:53.814Z,25.20
2018-07-28T07:59:53.794Z,25.17
2018-07-28T08:00:53.812Z,25.09
2018-07-28T08:01:53.764Z,25.19
2018-07-28T08:02:53.778Z,25.19
2018-07-28T08:03:53.743Z,25.26
2018-07-28T08:04:53.854Z,25.42
2018-07-28T08:05:53.729Z,25.36
2018-07-28T08:06:53.722Z,25.42
2018-07-28T08:07:53.792Z,25.48
2018-07-28T08:08:53.689Z,25.51
2018-07-28T08:09:53.714Z,25.51
2018-07-28T08:10:54.135Z,25.53
2018-07-28T08:11:53.657Z,25.49
2018-07-28T08:12:53.782Z,25.53
2018-07-28T08:13:53.635Z,25.48
2018-07-28T08:14:53.647Z,25.56
2018-07-28T08:15:53.617Z,25.67
2018-07-28T08:16:53.603Z,25.69
2018-07-28T08:17:53.675Z,25.78
2018-07-28T08:18:53.630Z,25.74
2018-07-28T08:19:53.585Z,25.75
2018-07-28T08:20:53.615Z,25.86
2018-07-28T08:21:53.563Z,25.90
2018-07-28T08:22:53.566Z,25.94
2018-07-28T08:23:53.531Z,25.83
2018-07-28T08:24:53.566Z,25.97
2018-07-28T08:25:53.514Z,25.90
2018-07-28T08:26:53.665Z,26.06
2018-07-28T08:27:53.547Z,26.11
2018-07-28T08:28:53.480Z,26.29
2018-07-28T08:29:53.481Z,26.34
2018-07-28T08:30:53.523Z,26.39
2018-07-28T08:31:53.448Z,26.56
2018-07-28T08:32:53.463Z,26.59
2018-07-28T08:33:53.452Z,26.60
2018-07-28T08:34:53.442Z,26.50
2018-07-28T08:35:53.415Z,26.51
2018-07-28T08:36:53.438Z,26.54
2018-07-28T08:37:53.448Z,26.61
2018-07-28T08:38:53.384Z,26.60
2018-07-28T08:39:53.415Z,26.64
2018-07-28T08:40:53.365Z,26.64
2018-07-28T08:41:53.352Z,26.57
2018-07-28T08:42:53.455Z,26.57
2018-07-28T08:43:53.325Z,26.60
2018-07-28T08:44:53.314Z,26.59
2018-07-28T08:45:53.304Z,26.53
2018-07-28T08:46:53.309Z,26.54
2018-07-28T08:47:53.413Z,26.61
2018-07-28T08:48:53.319Z,26.60
2018-07-28T08:49:53.272Z,26.72
2018-07-28T08:50:53.253Z,26.76
2018-07-28T08:51:53.250Z,27.02
2018-07-28T08:52:53.262Z,27.08
2018-07-28T08:53:53.257Z,27.30
2018-07-28T08:54:53.242Z,27.34
2018-07-28T08:55:53.208Z,27.38
2018-07-28T08:56:53.200Z,27.38
2018-07-28T08:57:53.211Z,27.59
2018-07-28T08:58:53.214Z,27.86
2018-07-28T08:59:53.223Z,28.03
2018-07-28T09:00:53.171Z,28.05
2018-07-28T09:01:53.146Z,28.20
2018-07-28T09:02:53.201Z,28.32
2018-07-28T09:03:53.225Z,28.14
2018-07-28T09:04:53.107Z,28.08
2018-07-28T09:05:53.123Z,28.30
2018-07-28T09:06:53.115Z,28.54
2018-07-28T09:07:53.106Z,28.64
2018-07-28T09:08:53.066Z,28.88
2018-07-28T09:09:53.057Z,28.91
2018-07-28T09:10:53.056Z,29.03
2018-07-28T09:11:53.045Z,29.21
2018-07-28T09:12:53.088Z,29.21
2018-07-28T09:13:53.042Z,29.37
2018-07-28T09:14:53.005Z,29.52
2018-07-28T09:15:53.094Z,29.60
2018-07-28T09:16:52.990Z,29.79
2018-07-28T09:17:53.029Z,29.86
2018-07-28T09:18:52.964Z,29.99
2018-07-28T09:19:52.955Z,30.03
2018-07-28T09:20:52.962Z,29.86
2018-07-28T09:21:53.065Z,29.58
2018-07-28T09:22:52.949Z,29.33
2018-07-28T09:23:52.915Z,29.37
2018-07-28T09:24:52.919Z,29.51
2018-07-28T09:25:52.895Z,29.26
2018-07-28T09:26:52.887Z,29.17
2018-07-28T09:27:52.937Z,29.08
2018-07-28T09:28:52.868Z,29.10
2018-07-28T09:29:52.861Z,29.05
2018-07-28T09:30:52.839Z,29.18
2018-07-28T09:31:52.830Z,29.29
2018-07-28T09:32:52.894Z,29.33
2018-07-28T09:33:52.812Z,29.39
2018-07-28T09:34:52.798Z,29.51
2018-07-28T09:35:52.794Z,29.69
2018-07-28T09:36:52.847Z,29.79
2018-07-28T09:37:52.791Z,29.89
2018-07-28T09:38:52.771Z,30.01
2018-07-28T09:39:52.773Z,30.01
2018-07-28T09:40:52.837Z,29.92
2018-07-28T09:41:52.730Z,29.79
2018-07-28T09:42:52.777Z,29.91
2018-07-28T09:43:52.709Z,29.86
2018-07-28T09:44:52.698Z,29.85
2018-07-28T09:45:52.706Z,29.85
2018-07-28T09:46:52.734Z,29.92
2018-07-28T09:47:52.690Z,29.91
2018-07-28T09:48:52.655Z,30.08
2018-07-28T09:49:52.676Z,30.32
2018-07-28T09:50:52.661Z,30.34
2018-07-28T09:51:52.629Z,30.38
2018-07-28T09:52:52.643Z,30.38
2018-07-28T09:53:52.604Z,30.61
2018-07-28T09:54:52.606Z,30.64
2018-07-28T09:55:52.606Z,30.51
2018-07-28T09:56:52.583Z,30.61
2018-07-28T09:57:52.595Z,30.64
2018-07-28T09:58:52.558Z,30.67
2018-07-28T09:59:52.567Z,30.60
2018-07-28T10:00:52.535Z,30.61
2018-07-28T10:01:52.530Z,30.49
2018-07-28T10:02:52.576Z,30.44
2018-07-28T10:03:52.508Z,30.57
2018-07-28T10:04:52.495Z,30.53
2018-07-28T10:05:52.487Z,30.70
2018-07-28T10:06:52.475Z,30.57
2018-07-28T10:07:52.512Z,30.68
2018-07-28T10:08:52.529Z,30.78
2018-07-28T10:09:52.453Z,30.64
2018-07-28T10:10:52.435Z,30.40
2018-07-28T10:11:52.429Z,30.29
2018-07-28T10:12:52.416Z,30.32
2018-07-28T10:13:52.431Z,30.10
2018-07-28T10:14:52.408Z,30.11
2018-07-28T10:15:52.386Z,30.22
2018-07-28T10:16:52.387Z,30.37
2018-07-28T10:17:52.366Z,30.53
2018-07-28T10:18:52.386Z,30.54
2018-07-28T10:19:52.384Z,30.44
2018-07-28T10:20:52.398Z,30.48
2018-07-28T10:21:52.329Z,30.66
2018-07-28T10:22:52.346Z,30.64
2018-07-28T10:23:52.335Z,30.63
2018-07-28T10:24:52.295Z,30.81
2018-07-28T10:25:52.302Z,30.81
2018-07-28T10:26:52.308Z,30.83
2018-07-28T10:27:52.264Z,30.90
2018-07-28T10:28:52.254Z,30.98
2018-07-28T10:29:52.293Z,31.04
2018-07-28T10:30:52.237Z,31.19
2018-07-28T10:31:52.224Z,31.18
2018-07-28T10:32:52.236Z,31.25
2018-07-28T10:33:52.206Z,31.09
2018-07-28T10:34:52.218Z,30.98
2018-07-28T10:35:52.185Z,31.09
2018-07-28T10:36:52.182Z,30.96
2018-07-28T10:37:52.165Z,30.70
2018-07-28T10:38:52.157Z,30.66
2018-07-28T10:39:52.210Z,30.57
2018-07-28T10:40:52.169Z,30.51
2018-07-28T10:41:52.158Z,30.54
2018-07-28T10:42:52.118Z,30.66
2018-07-28T10:43:52.167Z,30.57
2018-07-28T10:44:52.098Z,30.66
2018-07-28T10:45:52.173Z,30.63
2018-07-28T10:46:52.130Z,30.46
2018-07-28T10:47:52.073Z,30.45
2018-07-28T10:48:52.060Z,30.38
2018-07-28T10:49:52.057Z,30.26
2018-07-28T10:50:52.171Z,30.25
2018-07-28T10:51:52.054Z,30.28
2018-07-28T10:52:52.036Z,30.37
2018-07-28T10:53:52.005Z,30.26
2018-07-28T10:54:51.993Z,30.40
2018-07-28T10:55:52.007Z,30.45
2018-07-28T10:56:51.976Z,30.48
2018-07-28T10:57:51.992Z,30.60
2018-07-28T10:58:51.950Z,30.57
2018-07-28T10:59:51.940Z,30.68
2018-07-28T11:00:51.956Z,30.72
2018-07-28T11:01:51.919Z,30.86
2018-07-28T11:02:51.907Z,31.16
2018-07-28T11:03:51.903Z,31.31
2018-07-28T11:04:51.903Z,31.09
2018-07-28T11:05:51.924Z,31.28
2018-07-28T11:06:51.867Z,31.30
2018-07-28T11:07:51.857Z,31.46
2018-07-28T11:08:51.850Z,31.67
2018-07-28T11:09:51.895Z,31.92
2018-07-28T11:10:51.857Z,32.28
2018-07-28T11:11:51.920Z,32.68
2018-07-28T11:12:51.815Z,32.50
2018-07-28T11:13:51.800Z,32.19
2018-07-28T11:14:51.827Z,31.84
2018-07-28T11:15:51.825Z,31.47
2018-07-28T11:16:51.787Z,31.31
2018-07-28T11:17:51.761Z,31.27
2018-07-28T11:18:51.800Z,31.12
2018-07-28T11:19:51.753Z,30.73
2018-07-28T11:20:51.755Z,30.63
2018-07-28T11:21:51.749Z,30.40
2018-07-28T11:22:51.712Z,30.07
2018-07-28T11:23:51.701Z,29.81
2018-07-28T11:24:51.815Z,29.44
2018-07-28T11:25:51.731Z,28.18
2018-07-28T11:26:51.672Z,27.25
2018-07-28T11:27:51.667Z,26.35
2018-07-28T11:28:51.648Z,25.78
2018-07-28T11:29:51.636Z,25.39
2018-07-28T11:30:51.661Z,25.12
2018-07-28T11:31:51.635Z,24.99
2018-07-28T11:32:51.710Z,24.80
2018-07-28T11:33:51.600Z,24.66
2018-07-28T11:34:51.600Z,24.53
2018-07-28T11:35:51.629Z,24.42
2018-07-28T11:36:51.566Z,24.33
2018-07-28T11:37:51.565Z,24.18
2018-07-28T11:38:51.549Z,24.06
2018-07-28T11:39:51.535Z,23.92
2018-07-28T11:40:51.550Z,23.89
2018-07-28T11:41:51.544Z,23.89
2018-07-28T11:42:51.499Z,23.93
2018-07-28T11:43:51.521Z,23.92
2018-07-28T11:44:51.489Z,23.92
2018-07-28T11:45:51.561Z,23.77
2018-07-28T11:46:51.460Z,23.72
2018-07-28T11:47:51.459Z,23.81
2018-07-28T11:48:51.444Z,23.96
2018-07-28T11:49:51.426Z,24.44
2018-07-28T11:50:51.436Z,25.08
2018-07-28T11:51:51.438Z,25.51
2018-07-28T11:52:51.429Z,26.04
2018-07-28T11:53:51.423Z,26.87
2018-07-28T11:54:51.375Z,28.08
2018-07-28T11:55:51.375Z,29.05
2018-07-28T11:56:51.580Z,29.79
2018-07-28T11:57:51.358Z,30.38
2018-07-28T11:58:51.382Z,30.88
2018-07-28T11:59:51.330Z,30.88
2018-07-28T12:00:51.352Z,31.23
2018-07-28T12:01:51.608Z,31.20
2018-07-28T12:02:51.323Z,31.42
2018-07-28T12:03:51.288Z,31.65
2018-07-28T12:04:51.596Z,31.69
2018-07-28T12:05:51.271Z,31.99
2018-07-28T12:06:51.301Z,32.32
2018-07-28T12:07:51.297Z,32.47
2018-07-28T12:08:51.500Z,32.28
2018-07-28T12:09:51.230Z,32.44
2018-07-28T12:10:51.472Z,32.56
2018-07-28T12:11:51.224Z,32.71
2018-07-28T12:12:51.245Z,32.49
2018-07-28T12:13:51.339Z,32.10
2018-07-28T12:14:51.256Z,32.07
2018-07-28T12:15:51.178Z,32.49
2018-07-28T12:16:51.165Z,32.47
2018-07-28T12:17:51.193Z,32.46
2018-07-28T12:18:51.378Z,32.14
2018-07-28T12:19:51.334Z,31.49
2018-07-28T12:20:51.130Z,31.74
2018-07-28T12:21:51.145Z,31.28
2018-07-28T12:22:51.163Z,30.45
2018-07-28T12:23:51.135Z,29.82
2018-07-28T12:24:51.093Z,29.44
2018-07-28T12:25:51.125Z,29.00
2018-07-28T12:26:51.104Z,28.32
2018-07-28T12:27:51.148Z,27.77
2018-07-28T12:28:51.177Z,27.52
2018-07-28T12:29:51.263Z,27.23
2018-07-28T12:30:51.032Z,26.84
2018-07-28T12:31:51.038Z,26.54
2018-07-28T12:32:51.077Z,26.39
2018-07-28T12:33:51.013Z,26.27
2018-07-28T12:34:50.999Z,26.42
2018-07-28T12:35:50.984Z,26.41
2018-07-28T12:36:50.972Z,26.31
2018-07-28T12:37:50.990Z,26.13
2018-07-28T12:38:51.103Z,26.11
2018-07-28T12:39:50.944Z,26.19
2018-07-28T12:40:50.934Z,26.13
2018-07-28T12:41:50.942Z,26.49
2018-07-28T12:42:50.938Z,26.57
2018-07-28T12:43:50.914Z,27.02
2018-07-28T12:44:50.892Z,27.27
2018-07-28T12:45:50.885Z,27.08
2018-07-28T12:46:50.873Z,26.88
2018-07-28T12:47:50.891Z,26.60
2018-07-28T12:48:50.873Z,26.29
2018-07-28T12:49:50.845Z,26.16
2018-07-28T12:50:50.850Z,25.94
2018-07-28T12:51:50.827Z,25.83
2018-07-28T12:52:50.816Z,25.89